createdAt,value
2023-04-28T00:04:04.669Z,60.46
2023-04-28T00:09:26.451Z,60.51
2023-04-28T00:14:48.184Z,60.40
2023-04-28T00:20:11.006Z,60.72
2023-04-28T00:25:33.284Z,60.61
2023-04-28T00:30:55.265Z,60.40
2023-04-28T00:36:20.104Z,58.52
2023-04-28T00:41:41.535Z,57.80
2023-04-28T00:47:03.466Z,59.44
2023-04-28T00:52:25.194Z,60.00
2023-04-28T00:57:46.654Z,59.06
2023-04-28T01:03:08.953Z,57.63
2023-04-28T01:08:31.911Z,58.44
2023-04-28T01:13:54.653Z,59.10
2023-04-28T01:19:23.842Z,59.66
2023-04-28T01:24:46.633Z,59.85
2023-04-28T01:30:11.544Z,60.49
2023-04-28T01:35:34.153Z,60.38
2023-04-28T01:40:56.706Z,60.92
2023-04-28T01:46:18.253Z,60.86
2023-04-28T01:51:41.067Z,60.87
2023-04-28T01:57:03.400Z,61.50
2023-04-28T02:02:26.189Z,61.82
2023-04-28T02:07:48.058Z,62.04
2023-04-28T02:13:09.681Z,61.97
2023-04-28T02:18:31.818Z,62.11
2023-04-28T02:23:55.249Z,62.25
2023-04-28T02:29:20.486Z,62.38
2023-04-28T02:34:42.014Z,62.00
2023-04-28T02:40:03.670Z,62.19
2023-04-28T02:45:26.278Z,62.03
2023-04-28T02:50:48.304Z,62.22
2023-04-28T02:56:10.538Z,62.43
2023-04-28T03:01:32.159Z,62.79
2023-04-28T03:06:54.093Z,62.52
2023-04-28T03:12:15.938Z,62.70
2023-04-28T03:17:39.327Z,62.88
2023-04-28T03:23:02.864Z,63.17
2023-04-28T03:28:25.227Z,63.34
2023-04-28T03:33:47.954Z,63.12
2023-04-28T03:39:11.798Z,63.01
2023-04-28T03:44:33.422Z,62.40
2023-04-28T03:49:55.853Z,62.55
2023-04-28T03:55:18.181Z,63.03
2023-04-28T04:00:40.916Z,63.33
2023-04-28T04:06:03.341Z,63.81
2023-04-28T04:11:25.282Z,63.44
2023-04-28T04:16:50.831Z,63.69
2023-04-28T04:22:13.348Z,63.77
2023-04-28T04:27:34.975Z,63.60
2023-04-28T04:32:56.858Z,62.84
2023-04-28T04:38:18.945Z,61.39
2023-04-28T04:43:42.372Z,60.90
2023-04-28T04:49:05.699Z,60.37
2023-04-28T04:54:27.530Z,59.66
2023-04-28T04:59:52.871Z,57.78
2023-04-28T05:05:21.093Z,56.77
2023-04-28T05:10:47.695Z,55.74
2023-04-28T05:16:09.833Z,54.87
2023-04-28T05:21:54.871Z,53.81
2023-04-28T05:27:17.676Z,53.39
2023-04-28T05:32:39.684Z,52.64
2023-04-28T05:38:04.649Z,52.20
2023-04-28T05:43:26.851Z,51.48
2023-04-28T05:48:54.993Z,51.21
2023-04-28T05:54:17.273Z,51.41
2023-04-28T05:59:42.282Z,51.13
2023-04-28T06:05:04.290Z,50.35
2023-04-28T06:10:27.149Z,49.71
2023-04-28T06:15:48.777Z,49.24
2023-04-28T06:21:10.475Z,48.86
2023-04-28T06:26:32.816Z,48.22
2023-04-28T06:31:57.969Z,47.70
2023-04-28T06:37:20.188Z,47.86
2023-04-28T06:42:42.817Z,47.16
2023-04-28T06:48:13.639Z,46.63
2023-04-28T06:53:35.112Z,46.09
2023-04-28T06:58:57.434Z,45.05
2023-04-28T07:04:19.901Z,44.78
2023-04-28T07:09:42.002Z,44.08
2023-04-28T07:15:03.708Z,43.79
2023-04-28T07:20:25.619Z,43.33
2023-04-28T07:25:49.797Z,43.36
2023-04-28T07:31:11.829Z,42.66
2023-04-28T07:36:34.657Z,42.77
2023-04-28T07:42:00.453Z,42.15
2023-04-28T07:47:22.428Z,40.78
2023-04-28T07:52:45.168Z,40.56
2023-04-28T07:58:06.890Z,40.18
2023-04-28T08:03:29.024Z,39.91
2023-04-28T08:08:50.746Z,39.46
2023-04-28T08:14:12.974Z,37.57
2023-04-28T08:19:35.512Z,37.35
2023-04-28T08:25:00.050Z,36.49
2023-04-28T08:30:22.329Z,34.53
2023-04-28T08:35:44.603Z,34.36
2023-04-28T08:41:06.338Z,34.42
2023-04-28T08:46:29.096Z,33.49
2023-04-28T08:52:03.053Z,33.77
2023-04-28T08:57:27.713Z,33.25
2023-04-28T09:02:50.346Z,33.23
2023-04-28T09:08:12.671Z,32.96
2023-04-28T09:13:35.039Z,33.13
2023-04-28T09:18:58.207Z,33.55
2023-04-28T09:24:47.641Z,33.32
2023-04-28T09:30:10.196Z,33.38
2023-04-28T09:35:48.483Z,33.02
2023-04-28T09:41:09.788Z,32.38
2023-04-28T09:46:31.765Z,32.90
2023-04-28T09:52:12.375Z,32.50
2023-04-28T09:57:35.936Z,31.93
2023-04-28T10:03:00.000Z,32.38
2023-04-28T10:08:24.967Z,31.75
2023-04-28T10:13:46.444Z,31.35
2023-04-28T10:19:09.185Z,31.44
2023-04-28T10:24:31.414Z,31.03
2023-04-28T10:29:52.935Z,31.28
2023-04-28T10:35:33.166Z,31.13
2023-04-28T10:40:54.756Z,30.95
2023-04-28T10:46:16.895Z,31.03
2023-04-28T10:51:38.416Z,30.72
2023-04-28T10:57:17.219Z,30.76
2023-04-28T11:02:43.646Z,30.46
2023-04-28T11:08:18.432Z,30.24
2023-04-28T11:13:42.340Z,29.80
2023-04-28T11:19:05.083Z,29.84
2023-04-28T11:24:29.475Z,29.78
2023-04-28T11:29:50.978Z,30.07
2023-04-28T11:35:12.782Z,30.13
2023-04-28T11:40:34.232Z,30.13
2023-04-28T11:45:56.467Z,30.23
2023-04-28T11:51:34.795Z,30.02
2023-04-28T11:56:57.698Z,29.88
2023-04-28T12:02:30.858Z,29.24
2023-04-28T12:07:54.088Z,29.84
2023-04-28T12:13:17.492Z,29.31
2023-04-28T12:18:59.048Z,29.88
2023-04-28T12:24:22.000Z,28.98
2023-04-28T12:29:46.592Z,28.74
2023-04-28T12:35:09.199Z,28.88
2023-04-28T12:40:30.829Z,28.21
2023-04-28T12:45:56.415Z,28.44
2023-04-28T12:51:18.512Z,27.70
2023-04-28T12:56:40.436Z,28.05
2023-04-28T13:02:02.508Z,27.70
2023-04-28T13:07:24.494Z,27.82
2023-04-28T13:12:46.231Z,27.88
2023-04-28T13:18:08.167Z,27.80
2023-04-28T13:23:30.888Z,27.43
2023-04-28T13:28:52.812Z,27.60
2023-04-28T13:34:18.942Z,27.88
2023-04-28T13:39:41.093Z,27.47
2023-04-28T13:45:04.419Z,27.49
2023-04-28T13:50:26.868Z,27.68
2023-04-28T13:55:51.327Z,27.33
2023-04-28T14:01:12.836Z,28.27
2023-04-28T14:06:35.055Z,27.83
2023-04-28T14:11:58.582Z,28.12
2023-04-28T14:17:20.358Z,28.26
2023-04-28T14:22:42.129Z,28.77
2023-04-28T14:28:03.965Z,29.00
2023-04-28T14:33:25.808Z,29.34
2023-04-28T14:38:47.521Z,28.77
2023-04-28T14:44:09.544Z,28.57
2023-04-28T14:49:31.379Z,28.32
2023-04-28T14:54:54.353Z,28.98
2023-04-28T15:00:16.960Z,29.09
2023-04-28T15:05:39.534Z,28.92
2023-04-28T15:11:01.211Z,28.93
2023-04-28T15:16:22.745Z,28.84
2023-04-28T15:21:46.166Z,29.25
2023-04-28T15:27:08.049Z,29.58
2023-04-28T15:32:31.849Z,29.81
2023-04-28T15:37:55.577Z,29.98
2023-04-28T15:43:17.619Z,29.62
2023-04-28T15:48:39.832Z,29.88
2023-04-28T15:54:01.767Z,30.09
2023-04-28T15:59:24.654Z,30.02
2023-04-28T16:04:47.051Z,30.79
2023-04-28T16:10:13.746Z,30.70
2023-04-28T16:15:35.798Z,30.91
2023-04-28T16:20:57.524Z,31.20
2023-04-28T16:26:19.556Z,31.30
2023-04-28T16:31:41.119Z,31.67
2023-04-28T16:37:03.648Z,31.41
2023-04-28T16:42:25.367Z,31.73
2023-04-28T16:47:47.310Z,31.76
2023-04-28T16:53:09.505Z,32.22
2023-04-28T16:58:31.736Z,32.26
2023-04-28T17:03:53.767Z,32.57
2023-04-28T17:09:17.698Z,32.95
2023-04-28T17:14:39.430Z,33.06
2023-04-28T17:20:02.414Z,33.02
2023-04-28T17:25:24.493Z,33.71
2023-04-28T17:30:47.591Z,35.06
2023-04-28T17:36:09.653Z,35.74
2023-04-28T17:41:32.020Z,36.31
2023-04-28T17:46:53.796Z,36.67
2023-04-28T17:52:16.265Z,37.06
2023-04-28T17:57:38.108Z,37.24
2023-04-28T18:03:01.561Z,37.32
2023-04-28T18:08:23.653Z,37.45
2023-04-28T18:13:46.181Z,37.79
2023-04-28T18:19:08.462Z,38.00
2023-04-28T18:24:30.624Z,38.15
2023-04-28T18:29:52.264Z,38.53
2023-04-28T18:35:15.171Z,38.77
2023-04-28T18:40:38.767Z,38.99
2023-04-28T18:46:04.385Z,39.49
2023-04-28T18:51:26.304Z,39.94
2023-04-28T18:56:48.139Z,40.43
2023-04-28T19:02:09.984Z,40.79
2023-04-28T19:07:32.960Z,41.05
2023-04-28T19:12:56.167Z,41.37
2023-04-28T19:18:18.054Z,41.57
2023-04-28T19:23:40.881Z,41.79
2023-04-28T19:29:03.819Z,41.58
2023-04-28T19:34:25.850Z,41.91
2023-04-28T19:39:52.822Z,42.07
2023-04-28T19:45:17.121Z,41.92
2023-04-28T19:50:38.670Z,41.85
2023-04-28T19:56:02.178Z,42.10
2023-04-28T20:01:24.156Z,42.34
2023-04-28T20:06:46.529Z,42.75
2023-04-28T20:12:09.230Z,42.70
2023-04-28T20:17:31.562Z,43.13
2023-04-28T20:22:53.156Z,43.83
2023-04-28T20:28:15.097Z,44.27
2023-04-28T20:33:36.785Z,44.81
2023-04-28T20:38:58.742Z,44.98
2023-04-28T20:44:20.679Z,45.50
2023-04-28T20:49:42.390Z,45.54
2023-04-28T20:55:04.550Z,45.56
2023-04-28T21:00:26.375Z,45.75
2023-04-28T21:05:48.291Z,45.62
2023-04-28T21:11:13.828Z,45.01
2023-04-28T21:16:36.343Z,44.13
2023-04-28T21:21:58.794Z,43.60
2023-04-28T21:27:20.827Z,42.97
2023-04-28T21:32:43.873Z,42.67
2023-04-28T21:38:06.387Z,41.76
2023-04-28T21:43:28.654Z,41.43
2023-04-28T21:48:50.049Z,41.37
2023-04-28T21:54:12.476Z,41.65
2023-04-28T21:59:34.461Z,41.38
2023-04-28T22:04:56.340Z,41.53
2023-04-28T22:10:19.195Z,42.08
2023-04-28T22:15:43.303Z,41.71
2023-04-28T22:21:07.041Z,41.65
2023-04-28T22:26:30.472Z,41.81
2023-04-28T22:31:53.481Z,41.52
2023-04-28T22:37:16.536Z,41.68
2023-04-28T22:42:40.633Z,42.02
2023-04-28T22:48:02.341Z,43.72
2023-04-28T22:53:24.437Z,45.18
2023-04-28T22:58:47.159Z,45.37
2023-04-28T23:04:09.397Z,45.32
2023-04-28T23:09:36.256Z,44.94
2023-04-28T23:14:57.983Z,44.55
2023-04-28T23:20:19.897Z,45.02
2023-04-28T23:25:43.098Z,45.37
2023-04-28T23:31:05.134Z,44.33
2023-04-28T23:36:29.199Z,43.87
2023-04-28T23:41:51.430Z,43.70
2023-04-28T23:47:14.558Z,43.40
2023-04-28T23:52:40.525Z,43.93
2023-04-28T23:58:02.033Z,44.43
